createdAt,value
2019-02-16T00:00:44.962Z,22.23
2019-02-16T00:03:12.939Z,22.14
2019-02-16T00:05:40.526Z,22.12
2019-02-16T00:08:08.402Z,22.10
2019-02-16T00:10:36.684Z,22.11
2019-02-16T00:13:04.806Z,22.09
2019-02-16T00:15:32.532Z,22.06
2019-02-16T00:18:00.279Z,22.12
2019-02-16T00:20:28.447Z,22.10
2019-02-16T00:22:56.817Z,22.07
2019-02-16T00:25:24.558Z,22.12
2019-02-16T00:27:53.327Z,22.11
2019-02-16T00:30:22.241Z,22.13
2019-02-16T00:32:50.206Z,22.07
2019-02-16T00:35:18.182Z,22.07
2019-02-16T00:37:46.150Z,22.03
2019-02-16T00:40:14.223Z,22.03
2019-02-16T00:42:42.493Z,22.05
2019-02-16T00:45:12.174Z,22.00
2019-02-16T00:47:40.589Z,22.08
2019-02-16T00:50:08.433Z,21.90
2019-02-16T00:52:37.949Z,22.03
2019-02-16T00:55:05.465Z,21.96
2019-02-16T00:57:34.284Z,21.98
2019-02-16T01:00:05.473Z,22.01
2019-02-16T01:02:34.186Z,22.06
2019-02-16T01:05:02.251Z,22.03
2019-02-16T01:07:30.659Z,22.03
2019-02-16T01:09:59.239Z,21.99
2019-02-16T01:12:27.018Z,21.94
2019-02-16T01:14:56.267Z,21.88
2019-02-16T01:17:23.824Z,21.86
2019-02-16T01:19:51.563Z,21.92
2019-02-16T01:22:20.011Z,21.85
2019-02-16T01:24:48.320Z,21.81
2019-02-16T01:27:17.272Z,21.83
2019-02-16T01:29:45.168Z,21.87
2019-02-16T01:32:13.213Z,21.93
2019-02-16T01:34:41.480Z,21.84
2019-02-16T01:37:09.443Z,21.91
2019-02-16T01:39:38.723Z,21.91
2019-02-16T01:42:06.702Z,21.91
2019-02-16T01:44:34.432Z,21.87
2019-02-16T01:47:03.366Z,21.90
2019-02-16T01:49:31.098Z,21.86
2019-02-16T01:51:59.540Z,21.85
2019-02-16T01:54:27.865Z,21.85
2019-02-16T01:56:55.634Z,21.86
2019-02-16T01:59:24.074Z,21.78
2019-02-16T02:01:52.686Z,21.76
2019-02-16T02:04:20.548Z,21.81
2019-02-16T02:06:48.247Z,21.76
2019-02-16T02:09:16.342Z,21.74
2019-02-16T02:11:43.915Z,21.80
2019-02-16T02:14:11.927Z,21.74
2019-02-16T02:16:40.471Z,21.81
2019-02-16T02:19:08.451Z,21.81
2019-02-16T02:21:41.203Z,21.84
2019-02-16T02:24:05.766Z,21.78
2019-02-16T02:26:33.829Z,21.82
2019-02-16T02:29:01.384Z,21.84
2019-02-16T02:31:29.718Z,21.80
2019-02-16T02:33:57.696Z,21.81
2019-02-16T02:36:25.296Z,21.78
2019-02-16T02:38:53.393Z,21.80
2019-02-16T02:41:21.327Z,21.79
2019-02-16T02:43:48.979Z,21.70
2019-02-16T02:46:17.123Z,21.70
2019-02-16T02:48:46.913Z,21.71
2019-02-16T02:51:14.725Z,21.70
2019-02-16T02:53:42.411Z,21.66
2019-02-16T02:56:11.806Z,21.70
2019-02-16T02:58:39.964Z,21.72
2019-02-16T03:01:26.526Z,21.72
2019-02-16T03:03:55.681Z,21.69
2019-02-16T03:06:25.738Z,21.63
2019-02-16T03:08:53.557Z,21.34
2019-02-16T03:11:23.119Z,21.68
2019-02-16T03:13:51.787Z,21.65
2019-02-16T03:16:20.185Z,21.67
2019-02-16T03:18:47.832Z,21.64
2019-02-16T03:21:18.185Z,21.60
2019-02-16T03:23:45.860Z,21.61
2019-02-16T03:26:28.076Z,21.54
2019-02-16T03:29:36.361Z,21.60
2019-02-16T03:32:49.701Z,21.66
2019-02-16T03:37:09.043Z,21.62
2019-02-16T03:39:42.975Z,21.57
2019-02-16T03:42:11.007Z,21.60
2019-02-16T03:44:39.181Z,21.49
2019-02-16T03:47:07.394Z,21.61
2019-02-16T03:49:35.433Z,21.54
2019-02-16T03:52:12.935Z,21.60
2019-02-16T03:54:34.000Z,21.58
2019-02-16T03:57:01.903Z,21.65
2019-02-16T03:59:29.733Z,21.68
2019-02-16T04:01:57.864Z,21.64
2019-02-16T04:04:26.504Z,21.68
2019-02-16T04:06:54.883Z,21.65
2019-02-16T04:09:22.863Z,21.63
2019-02-16T04:11:51.184Z,21.62
2019-02-16T04:14:19.398Z,21.64
2019-02-16T04:16:48.363Z,21.67
2019-02-16T04:19:16.886Z,21.65
2019-02-16T04:21:45.233Z,21.60
2019-02-16T04:24:13.160Z,21.59
2019-02-16T04:26:41.219Z,21.52
2019-02-16T04:29:08.897Z,21.55
2019-02-16T04:31:37.930Z,21.52
2019-02-16T04:34:06.707Z,21.54
2019-02-16T04:36:35.341Z,21.55
2019-02-16T04:39:04.540Z,21.57
2019-02-16T04:41:32.930Z,21.61
2019-02-16T04:44:01.008Z,21.64
2019-02-16T04:46:29.322Z,21.63
2019-02-16T04:48:58.649Z,21.58
2019-02-16T04:51:26.766Z,21.57
2019-02-16T04:53:54.348Z,21.59
2019-02-16T04:56:23.040Z,21.64
2019-02-16T04:58:50.771Z,21.55
2019-02-16T05:01:19.097Z,21.56
2019-02-16T05:03:47.194Z,21.60
2019-02-16T05:06:15.053Z,21.60
2019-02-16T05:08:43.198Z,21.49
2019-02-16T05:11:11.678Z,21.48
2019-02-16T05:13:39.712Z,21.55
2019-02-16T05:16:08.461Z,21.51
2019-02-16T05:18:36.806Z,21.58
2019-02-16T05:21:07.756Z,21.57
2019-02-16T05:23:36.470Z,21.57
2019-02-16T05:28:47.376Z,21.63
2019-02-16T05:31:14.595Z,21.61
2019-02-16T05:33:41.771Z,21.61
2019-02-16T05:36:09.047Z,21.58
2019-02-16T05:38:36.201Z,21.58
2019-02-16T05:41:03.352Z,21.58
2019-02-16T05:43:30.664Z,21.56
2019-02-16T05:45:57.954Z,21.58
2019-02-16T05:48:25.875Z,21.56
2019-02-16T05:50:53.100Z,21.60
2019-02-16T05:53:20.401Z,21.57
2019-02-16T05:55:48.519Z,21.60
2019-02-16T05:58:16.347Z,21.56
2019-02-16T06:00:43.837Z,21.56
2019-02-16T06:03:12.015Z,21.59
2019-02-16T06:05:40.901Z,21.59
2019-02-16T06:08:09.132Z,21.58
2019-02-16T06:10:36.690Z,21.61
2019-02-16T06:13:03.968Z,21.57
2019-02-16T06:15:31.703Z,21.57
2019-02-16T06:17:59.465Z,21.61
2019-02-16T06:20:27.897Z,21.57
2019-02-16T06:23:03.927Z,21.35
2019-02-16T06:25:25.354Z,21.55
2019-02-16T06:27:52.547Z,21.55
2019-02-16T06:30:19.752Z,21.55
2019-02-16T06:32:47.995Z,21.57
2019-02-16T06:35:28.924Z,21.54
2019-02-16T06:37:56.325Z,21.57
2019-02-16T06:40:23.547Z,21.60
2019-02-16T06:42:50.872Z,21.69
2019-02-16T06:45:18.167Z,21.70
2019-02-16T06:47:45.966Z,21.61
2019-02-16T06:50:14.108Z,21.64
2019-02-16T06:54:57.903Z,21.59
2019-02-16T06:57:29.691Z,21.65
2019-02-16T06:59:56.853Z,21.67
2019-02-16T07:02:25.963Z,21.77
2019-02-16T07:04:54.220Z,21.66
2019-02-16T07:07:22.375Z,21.66
2019-02-16T07:09:49.649Z,21.76
2019-02-16T07:12:18.395Z,21.71
2019-02-16T07:14:46.455Z,21.77
2019-02-16T07:17:36.044Z,21.74
2019-02-16T07:20:04.095Z,21.76
2019-02-16T07:22:31.522Z,21.68
2019-02-16T07:24:59.585Z,21.77
2019-02-16T07:27:26.759Z,21.76
2019-02-16T07:29:54.837Z,21.77
2019-02-16T07:32:23.026Z,21.75
2019-02-16T07:34:50.879Z,21.84
2019-02-16T07:37:18.784Z,21.51
2019-02-16T07:39:47.010Z,21.91
2019-02-16T07:42:14.760Z,22.06
2019-02-16T07:45:01.135Z,22.18
2019-02-16T07:47:34.037Z,22.18
2019-02-16T07:50:19.926Z,22.21
2019-02-16T07:53:01.567Z,22.30
2019-02-16T07:55:32.959Z,22.40
2019-02-16T07:58:06.955Z,22.39
2019-02-16T08:00:57.906Z,22.40
2019-02-16T08:03:44.053Z,22.39
2019-02-16T08:06:29.466Z,22.47
2019-02-16T08:09:04.785Z,22.45
2019-02-16T08:11:57.674Z,22.48
2019-02-16T08:14:44.136Z,22.47
2019-02-16T08:19:08.892Z,22.56
2019-02-16T08:21:46.492Z,22.55
2019-02-16T08:24:33.348Z,22.66
2019-02-16T08:27:18.589Z,22.59
2019-02-16T08:29:55.807Z,22.71
2019-02-16T08:32:48.480Z,22.83
2019-02-16T08:35:29.299Z,22.79
2019-02-16T08:38:12.458Z,22.84
2019-02-16T08:41:02.033Z,22.92
2019-02-16T08:43:46.569Z,23.04
2019-02-16T08:46:30.273Z,23.03
2019-02-16T08:49:16.313Z,23.10
2019-02-16T08:51:49.351Z,23.15
2019-02-16T08:54:40.772Z,23.17
2019-02-16T08:57:24.258Z,23.28
2019-02-16T09:00:23.220Z,23.27
2019-02-16T09:02:58.307Z,23.28
2019-02-16T09:05:38.241Z,23.35
2019-02-16T09:08:25.097Z,23.32
2019-02-16T09:11:12.732Z,22.95
2019-02-16T09:14:30.842Z,23.43
2019-02-16T09:17:31.944Z,23.48
2019-02-16T09:20:19.041Z,23.51
2019-02-16T09:22:53.033Z,23.52
2019-02-16T09:25:28.548Z,23.55
2019-02-16T09:28:15.656Z,23.55
2019-02-16T09:31:10.386Z,23.56
2019-02-16T09:33:46.765Z,23.63
2019-02-16T09:36:25.545Z,23.58
2019-02-16T09:41:26.070Z,23.57
2019-02-16T09:44:11.854Z,23.50
2019-02-16T09:47:01.843Z,23.52
2019-02-16T09:49:47.864Z,23.60
2019-02-16T09:52:34.776Z,23.60
2019-02-16T09:55:17.903Z,23.74
2019-02-16T09:58:04.677Z,23.87
2019-02-16T10:01:04.611Z,23.87
2019-02-16T10:03:51.208Z,23.90
2019-02-16T10:06:38.514Z,23.85
2019-02-16T10:09:24.266Z,23.88
2019-02-16T10:12:23.613Z,23.93
2019-02-16T10:15:10.671Z,23.88
2019-02-16T10:17:49.901Z,23.88
2019-02-16T10:20:24.776Z,23.96
2019-02-16T10:23:11.409Z,23.95
2019-02-16T10:25:49.839Z,23.99
2019-02-16T10:28:35.191Z,24.08
2019-02-16T10:31:25.768Z,24.01
2019-02-16T10:34:32.057Z,24.01
2019-02-16T10:37:11.496Z,24.02
2019-02-16T10:40:05.130Z,23.80
2019-02-16T10:42:56.085Z,23.84
2019-02-16T10:45:39.293Z,23.94
2019-02-16T10:48:26.350Z,23.90
2019-02-16T10:51:04.561Z,23.92
2019-02-16T10:53:56.330Z,23.90
2019-02-16T10:56:43.035Z,23.92
2019-02-16T11:03:29.565Z,24.01
2019-02-16T11:06:23.450Z,23.98
2019-02-16T11:09:17.549Z,23.87
2019-02-16T11:11:58.115Z,23.94
2019-02-16T11:14:46.207Z,24.05
2019-02-16T11:17:53.132Z,23.79
2019-02-16T11:20:41.936Z,23.66
2019-02-16T11:23:30.863Z,23.57
2019-02-16T11:26:28.988Z,23.80
2019-02-16T11:29:13.187Z,23.94
2019-02-16T11:32:03.741Z,23.74
2019-02-16T11:34:56.711Z,23.39
2019-02-16T11:37:38.432Z,23.67
2019-02-16T11:40:18.437Z,23.34
2019-02-16T11:47:20.905Z,23.54
2019-02-16T11:50:05.424Z,23.49
2019-02-16T11:53:08.793Z,23.52
2019-02-16T11:55:44.354Z,23.58
2019-02-16T11:58:22.790Z,23.54
2019-02-16T12:01:14.107Z,23.52
2019-02-16T12:03:57.197Z,23.53
2019-02-16T12:06:30.322Z,23.57
2019-02-16T12:09:24.136Z,23.58
2019-02-16T12:12:14.754Z,23.66
2019-02-16T12:15:05.149Z,23.75
2019-02-16T12:17:42.366Z,23.57
2019-02-16T12:20:33.154Z,23.57
2019-02-16T12:23:04.906Z,23.77
2019-02-16T12:25:45.637Z,23.77
2019-02-16T12:28:39.871Z,24.00
2019-02-16T12:31:27.476Z,24.04
2019-02-16T12:34:06.321Z,24.11
2019-02-16T12:37:00.740Z,24.17
2019-02-16T12:39:58.839Z,23.84
2019-02-16T12:42:46.468Z,24.27
2019-02-16T12:45:50.966Z,24.37
2019-02-16T12:51:03.675Z,24.38
2019-02-16T12:54:01.921Z,24.36
2019-02-16T12:56:48.749Z,24.46
2019-02-16T12:59:35.647Z,24.38
2019-02-16T13:02:28.919Z,24.46
2019-02-16T13:05:22.686Z,24.55
2019-02-16T13:08:09.641Z,24.53
2019-02-16T13:11:09.479Z,24.51
2019-02-16T13:13:59.035Z,24.55
2019-02-16T13:16:31.919Z,24.68
2019-02-16T13:19:21.858Z,24.75
2019-02-16T13:21:55.419Z,24.81
2019-02-16T13:24:46.703Z,24.70
2019-02-16T13:27:39.779Z,24.68
2019-02-16T13:30:14.269Z,24.66
2019-02-16T13:33:11.083Z,24.84
2019-02-16T13:35:58.390Z,24.71
2019-02-16T13:38:48.266Z,24.78
2019-02-16T13:41:36.367Z,24.83
2019-02-16T13:44:43.305Z,24.84
2019-02-16T13:47:39.578Z,24.87
2019-02-16T13:50:27.471Z,24.98
2019-02-16T13:53:21.917Z,24.91
2019-02-16T13:56:01.689Z,24.92
2019-02-16T14:01:34.836Z,24.98
2019-02-16T14:05:22.468Z,24.97
2019-02-16T14:07:58.406Z,25.04
2019-02-16T14:10:45.577Z,25.03
2019-02-16T14:13:33.399Z,25.03
2019-02-16T14:16:15.989Z,25.01
2019-02-16T14:18:44.523Z,24.98
2019-02-16T14:21:19.198Z,24.93
2019-02-16T14:23:50.594Z,24.99
2019-02-16T14:26:19.258Z,24.97
2019-02-16T14:28:48.614Z,25.00
2019-02-16T14:31:17.851Z,25.03
2019-02-16T14:33:46.515Z,25.00
2019-02-16T14:36:15.138Z,24.96
2019-02-16T14:38:54.921Z,24.96
2019-02-16T14:41:23.309Z,24.97
2019-02-16T14:43:52.011Z,24.97
2019-02-16T14:46:22.392Z,24.95
2019-02-16T14:48:50.833Z,24.96
2019-02-16T14:51:19.265Z,24.94
2019-02-16T14:53:47.847Z,24.95
2019-02-16T14:56:16.870Z,24.94
2019-02-16T14:58:45.240Z,24.92
2019-02-16T15:01:13.617Z,24.94
2019-02-16T15:03:42.947Z,24.96
2019-02-16T15:06:12.033Z,24.92
2019-02-16T15:08:40.218Z,24.92
2019-02-16T15:11:08.438Z,24.88
2019-02-16T15:13:36.971Z,24.85
2019-02-16T15:16:05.231Z,24.84
2019-02-16T15:18:33.726Z,24.83
2019-02-16T15:21:01.615Z,24.83
2019-02-16T15:23:29.528Z,24.78
2019-02-16T15:26:01.013Z,24.77
2019-02-16T15:28:28.127Z,24.78
2019-02-16T15:30:56.799Z,24.75
2019-02-16T15:33:25.160Z,24.73
2019-02-16T15:35:53.696Z,24.74
2019-02-16T15:38:22.781Z,24.70
2019-02-16T15:40:50.996Z,24.66
2019-02-16T15:43:19.736Z,24.65
2019-02-16T15:45:48.072Z,24.65
2019-02-16T15:48:16.277Z,24.63
2019-02-16T15:50:44.152Z,24.60
2019-02-16T15:53:12.937Z,24.60
2019-02-16T15:55:41.670Z,24.58
2019-02-16T15:58:09.953Z,24.50
2019-02-16T16:00:38.443Z,24.53
2019-02-16T16:03:07.453Z,24.51
2019-02-16T16:05:36.082Z,24.47
2019-02-16T16:08:22.683Z,24.47
2019-02-16T16:11:03.007Z,24.34
2019-02-16T16:13:49.807Z,24.34
2019-02-16T16:16:34.134Z,24.42
2019-02-16T16:19:24.537Z,24.38
2019-02-16T16:22:27.952Z,24.33
2019-02-16T16:25:16.115Z,24.33
2019-02-16T16:28:13.815Z,24.31
2019-02-16T16:31:04.097Z,24.30
2019-02-16T16:34:00.381Z,24.26
2019-02-16T16:36:57.400Z,24.23
2019-02-16T16:39:37.567Z,24.23
2019-02-16T16:42:29.577Z,24.20
2019-02-16T16:45:20.496Z,24.15
2019-02-16T16:48:08.103Z,24.10
2019-02-16T16:50:55.231Z,24.12
2019-02-16T16:53:41.205Z,23.87
2019-02-16T16:56:31.880Z,24.08
2019-02-16T16:59:27.556Z,24.02
2019-02-16T17:02:14.699Z,23.85
2019-02-16T17:05:07.007Z,23.90
2019-02-16T17:07:42.521Z,23.87
2019-02-16T17:10:36.231Z,23.84
2019-02-16T17:13:14.363Z,23.82
2019-02-16T17:15:52.191Z,23.73
2019-02-16T17:18:39.767Z,23.74
2019-02-16T17:21:23.216Z,23.60
2019-02-16T17:24:11.787Z,23.76
2019-02-16T17:26:59.641Z,23.73
2019-02-16T17:29:53.708Z,23.73
2019-02-16T17:32:41.133Z,23.66
2019-02-16T17:35:26.241Z,23.64
2019-02-16T17:38:16.489Z,23.64
2019-02-16T17:41:04.603Z,23.60
2019-02-16T17:43:45.581Z,23.59
2019-02-16T17:46:35.961Z,23.57
2019-02-16T17:49:34.009Z,23.54
2019-02-16T17:52:18.618Z,23.57
2019-02-16T17:55:12.382Z,23.56
2019-02-16T18:00:49.275Z,23.60
2019-02-16T18:03:46.735Z,23.54
2019-02-16T18:06:34.772Z,23.57
2019-02-16T18:09:35.699Z,23.51
2019-02-16T18:12:20.754Z,23.30
2019-02-16T18:15:11.378Z,23.43
2019-02-16T18:18:05.312Z,23.44
2019-02-16T18:21:03.337Z,23.43
2019-02-16T18:23:58.033Z,23.38
2019-02-16T18:26:35.204Z,23.37
2019-02-16T18:29:26.177Z,23.38
2019-02-16T18:32:14.080Z,23.36
2019-02-16T18:35:01.745Z,23.27
2019-02-16T18:37:52.707Z,23.27
2019-02-16T18:40:52.824Z,23.35
2019-02-16T18:43:53.234Z,23.31
2019-02-16T18:46:37.886Z,23.31
2019-02-16T18:49:28.167Z,23.30
2019-02-16T18:52:15.135Z,23.28
2019-02-16T18:55:11.109Z,23.28
2019-02-16T18:57:57.252Z,23.25
2019-02-16T19:00:35.985Z,23.21
2019-02-16T19:03:09.653Z,23.20
2019-02-16T19:06:12.747Z,23.22
2019-02-16T19:08:53.710Z,23.18
2019-02-16T19:11:43.491Z,23.14
2019-02-16T19:14:32.400Z,23.17
2019-02-16T19:17:09.410Z,23.12
2019-02-16T19:20:13.075Z,23.08
2019-02-16T19:23:03.360Z,23.15
2019-02-16T19:25:39.274Z,23.11
2019-02-16T19:28:33.608Z,23.16
2019-02-16T19:31:27.543Z,23.06
2019-02-16T19:34:33.871Z,23.09
2019-02-16T19:37:21.679Z,23.09
2019-02-16T19:40:08.499Z,23.07
2019-02-16T19:43:15.395Z,23.03
2019-02-16T19:46:02.071Z,22.95
2019-02-16T19:48:50.236Z,23.06
2019-02-16T19:51:38.480Z,23.00
2019-02-16T19:54:27.355Z,22.92
2019-02-16T19:57:06.990Z,22.96
2019-02-16T20:00:06.201Z,22.89
2019-02-16T20:03:07.025Z,22.95
2019-02-16T20:05:45.863Z,22.89
2019-02-16T20:08:18.933Z,22.87
2019-02-16T20:11:06.306Z,22.87
2019-02-16T20:13:53.776Z,22.80
2019-02-16T20:16:44.609Z,22.65
2019-02-16T20:19:23.530Z,22.70
2019-02-16T20:22:14.254Z,22.77
2019-02-16T20:25:05.114Z,22.82
2019-02-16T20:27:59.813Z,22.78
2019-02-16T20:30:42.421Z,22.77
2019-02-16T20:33:20.391Z,22.78
2019-02-16T20:36:11.640Z,22.73
2019-02-16T20:38:58.954Z,22.68
2019-02-16T20:41:47.184Z,22.76
2019-02-16T20:44:34.062Z,22.71
2019-02-16T20:47:12.851Z,22.76
2019-02-16T20:50:06.251Z,22.61
2019-02-16T20:52:48.050Z,22.58
2019-02-16T20:55:36.154Z,22.59
2019-02-16T20:58:17.548Z,22.67
2019-02-16T21:00:53.219Z,22.72
2019-02-16T21:03:57.253Z,22.69
2019-02-16T21:06:32.446Z,22.69
2019-02-16T21:09:26.033Z,22.71
2019-02-16T21:12:18.207Z,22.73
2019-02-16T21:14:54.955Z,22.75
2019-02-16T21:18:55.618Z,22.74
2019-02-16T21:25:08.113Z,22.69
2019-02-16T21:27:59.918Z,22.74
2019-02-16T21:30:37.640Z,22.57
2019-02-16T21:33:28.575Z,22.69
2019-02-16T21:36:16.263Z,22.69
2019-02-16T21:39:06.270Z,22.71
2019-02-16T21:41:43.668Z,22.70
2019-02-16T21:44:20.060Z,22.68
2019-02-16T21:47:11.547Z,22.66
2019-02-16T21:50:02.964Z,22.76
2019-02-16T21:52:51.108Z,22.69
2019-02-16T21:55:36.967Z,22.65
2019-02-16T21:58:24.647Z,22.71
2019-02-16T22:01:21.225Z,22.71
2019-02-16T22:03:57.317Z,22.69
2019-02-16T22:06:33.297Z,22.70
2019-02-16T22:09:39.268Z,22.64
2019-02-16T22:12:42.740Z,22.62
2019-02-16T22:15:11.023Z,22.63
2019-02-16T22:17:39.250Z,22.65
2019-02-16T22:20:10.253Z,22.64
2019-02-16T22:22:38.075Z,22.65
2019-02-16T22:25:06.146Z,22.62
2019-02-16T22:27:34.501Z,22.63
2019-02-16T22:30:03.220Z,22.56
2019-02-16T22:32:31.341Z,22.56
2019-02-16T22:35:00.500Z,22.58
2019-02-16T22:37:28.498Z,22.60
2019-02-16T22:39:57.492Z,22.62
2019-02-16T22:42:25.756Z,22.69
2019-02-16T22:44:54.249Z,22.65
2019-02-16T22:47:22.369Z,22.55
2019-02-16T22:49:52.175Z,22.60
2019-02-16T22:52:20.941Z,22.63
2019-02-16T22:54:50.590Z,22.63
2019-02-16T22:57:18.861Z,22.61
2019-02-16T22:59:47.528Z,22.61
2019-02-16T23:02:15.685Z,22.62
2019-02-16T23:04:43.931Z,22.55
2019-02-16T23:07:12.623Z,22.61
2019-02-16T23:12:14.032Z,22.46
2019-02-16T23:14:42.271Z,22.46
2019-02-16T23:17:10.907Z,22.42
2019-02-16T23:19:39.327Z,22.60
2019-02-16T23:22:07.516Z,22.51
2019-02-16T23:24:37.010Z,22.49
2019-02-16T23:27:04.804Z,22.55
2019-02-16T23:29:33.462Z,22.47
2019-02-16T23:32:01.925Z,22.52
2019-02-16T23:34:30.362Z,22.49
2019-02-16T23:36:58.813Z,22.49
2019-02-16T23:39:27.339Z,22.48
2019-02-16T23:41:55.640Z,22.52
2019-02-16T23:44:26.628Z,22.47
2019-02-16T23:46:54.703Z,22.44
2019-02-16T23:49:25.625Z,22.41
2019-02-16T23:51:53.624Z,22.40
2019-02-16T23:54:22.414Z,22.40
2019-02-16T23:56:51.723Z,22.35
2019-02-16T23:59:20.965Z,22.46
